createdAt,value
2016-10-11T00:01:05.029Z,0
2016-10-11T00:02:16.201Z,0
2016-10-11T00:03:27.359Z,0
2016-10-11T00:04:38.788Z,0
2016-10-11T00:05:49.966Z,0
2016-10-11T00:07:01.117Z,0
2016-10-11T00:08:13.027Z,0
2016-10-11T00:09:25.201Z,0
2016-10-11T00:10:36.371Z,0
2016-10-11T00:11:47.536Z,0
2016-10-11T00:12:58.722Z,0
2016-10-11T00:14:09.884Z,0
2016-10-11T00:15:21.055Z,0
2016-10-11T00:16:32.225Z,0
2016-10-11T00:17:43.387Z,0
2016-10-11T00:18:54.617Z,0
2016-10-11T00:20:06.319Z,0
2016-10-11T00:21:17.465Z,0
2016-10-11T00:22:28.626Z,0
2016-10-11T00:23:40.354Z,0
2016-10-11T00:24:51.537Z,0
2016-10-11T00:26:02.727Z,0
2016-10-11T00:27:13.883Z,0
2016-10-11T00:28:25.047Z,0
2016-10-11T00:29:36.203Z,0
2016-10-11T00:30:47.418Z,0
2016-10-11T00:31:58.602Z,0
2016-10-11T00:33:09.775Z,0
2016-10-11T00:34:20.965Z,0
2016-10-11T00:35:32.154Z,0
2016-10-11T00:36:43.898Z,0
2016-10-11T00:37:55.084Z,0
2016-10-11T00:39:06.279Z,0
2016-10-11T00:40:17.431Z,0
2016-10-11T00:41:28.755Z,0
2016-10-11T00:42:39.936Z,0
2016-10-11T00:43:51.096Z,0
2016-10-11T00:45:02.272Z,0
2016-10-11T00:46:13.455Z,0
2016-10-11T00:47:24.630Z,0
2016-10-11T00:48:35.796Z,0
2016-10-11T00:49:46.973Z,0
2016-10-11T00:50:58.135Z,0
2016-10-11T00:52:09.308Z,0
2016-10-11T00:53:20.493Z,0
2016-10-11T00:54:31.728Z,0
2016-10-11T00:55:42.895Z,0
2016-10-11T00:56:55.125Z,0
2016-10-11T00:58:06.727Z,0
2016-10-11T00:59:17.884Z,0
2016-10-11T01:00:29.047Z,0
2016-10-11T01:01:40.261Z,0
2016-10-11T01:02:51.408Z,0
2016-10-11T01:04:03.692Z,0
2016-10-11T01:05:14.884Z,0
2016-10-11T01:06:26.041Z,0
2016-10-11T01:07:37.243Z,0
2016-10-11T01:08:48.433Z,0
2016-10-11T01:09:59.585Z,0
2016-10-11T01:11:10.738Z,0
2016-10-11T01:12:21.896Z,0
2016-10-11T01:13:33.071Z,0
2016-10-11T01:14:44.250Z,0
2016-10-11T01:15:55.425Z,0
2016-10-11T01:17:06.580Z,0
2016-10-11T01:18:17.743Z,0
2016-10-11T01:19:28.912Z,0
2016-10-11T01:20:40.065Z,0
2016-10-11T01:21:51.416Z,0
2016-10-11T01:23:02.563Z,0
2016-10-11T01:24:13.741Z,0
2016-10-11T01:25:24.908Z,0
2016-10-11T01:26:36.076Z,0
2016-10-11T01:27:47.245Z,0
2016-10-11T01:28:58.392Z,0
2016-10-11T01:30:09.567Z,0
2016-10-11T01:31:20.733Z,0
2016-10-11T01:32:31.911Z,0
2016-10-11T01:33:43.103Z,0
2016-10-11T01:34:54.267Z,0
2016-10-11T01:36:05.462Z,0
2016-10-11T01:37:16.624Z,0
2016-10-11T01:38:27.815Z,0
2016-10-11T01:39:38.979Z,0
2016-10-11T01:40:50.119Z,0
2016-10-11T01:42:01.338Z,0
2016-10-11T01:43:12.496Z,0
2016-10-11T01:44:23.648Z,0
2016-10-11T01:45:34.828Z,0
2016-10-11T01:46:46.003Z,0
2016-10-11T01:47:57.168Z,0
2016-10-11T01:49:08.885Z,0
2016-10-11T01:50:20.071Z,0
2016-10-11T01:51:31.225Z,0
2016-10-11T01:52:42.406Z,0
2016-10-11T01:53:53.572Z,0
2016-10-11T01:55:04.758Z,0
2016-10-11T01:56:15.934Z,0
2016-10-11T01:57:27.111Z,0
2016-10-11T01:58:38.298Z,0
2016-10-11T01:59:49.480Z,0
2016-10-11T02:01:00.648Z,0
2016-10-11T02:02:11.838Z,0
2016-10-11T02:03:22.987Z,0
2016-10-11T02:04:34.157Z,0
2016-10-11T02:05:45.343Z,0
2016-10-11T02:06:56.533Z,0
2016-10-11T02:08:07.684Z,0
2016-10-11T02:09:18.827Z,0
2016-10-11T02:10:29.984Z,0
2016-10-11T02:11:41.156Z,0
2016-10-11T02:12:52.898Z,0
2016-10-11T02:14:04.626Z,0
2016-10-11T02:15:15.826Z,0
2016-10-11T02:16:26.981Z,0
2016-10-11T02:17:38.162Z,0
2016-10-11T02:18:49.328Z,0
2016-10-11T02:20:00.471Z,0
2016-10-11T02:21:11.632Z,0
2016-10-11T02:22:22.801Z,0
2016-10-11T02:23:33.992Z,0
2016-10-11T02:24:45.190Z,0
2016-10-11T02:25:56.362Z,0
2016-10-11T02:27:07.526Z,0
2016-10-11T02:28:18.682Z,0
2016-10-11T02:29:29.844Z,0
2016-10-11T02:30:41.001Z,0
2016-10-11T02:31:52.171Z,0
2016-10-11T02:33:03.323Z,0
2016-10-11T02:34:14.468Z,0
2016-10-11T02:35:25.657Z,0
2016-10-11T02:36:36.836Z,0
2016-10-11T02:37:47.991Z,0
2016-10-11T02:38:59.145Z,0
2016-10-11T02:40:10.320Z,0
2016-10-11T02:41:22.055Z,0
2016-10-11T02:42:33.210Z,0
2016-10-11T02:43:44.412Z,0
2016-10-11T02:44:55.602Z,0
2016-10-11T02:46:06.795Z,0
2016-10-11T02:47:18.632Z,0
2016-10-11T02:48:29.788Z,0
2016-10-11T02:49:41.017Z,0
2016-10-11T02:50:52.161Z,0
2016-10-11T02:52:03.343Z,0
2016-10-11T02:53:15.115Z,0
2016-10-11T02:54:26.277Z,0
2016-10-11T02:55:37.446Z,0
2016-10-11T02:56:48.629Z,0
2016-10-11T02:57:59.778Z,0
2016-10-11T02:59:10.933Z,0
2016-10-11T03:00:22.089Z,0
2016-10-11T03:01:33.286Z,0
2016-10-11T03:02:44.441Z,0
2016-10-11T03:03:55.608Z,0
2016-10-11T03:05:06.766Z,0
2016-10-11T03:06:17.937Z,0
2016-10-11T03:07:29.130Z,0
2016-10-11T03:08:40.295Z,0
2016-10-11T03:09:51.451Z,0
2016-10-11T03:11:02.609Z,0
2016-10-11T03:12:13.781Z,0
2016-10-11T03:13:24.935Z,0
2016-10-11T03:14:36.103Z,0
2016-10-11T03:15:47.264Z,0
2016-10-11T03:16:58.416Z,0
2016-10-11T03:18:09.587Z,0
2016-10-11T03:19:20.751Z,0
2016-10-11T03:20:32.489Z,0
2016-10-11T03:21:43.665Z,0
2016-10-11T03:22:54.855Z,0
2016-10-11T03:24:06.614Z,0
2016-10-11T03:25:17.786Z,0
2016-10-11T03:26:28.951Z,0
2016-10-11T03:27:40.136Z,0
2016-10-11T03:28:51.856Z,0
2016-10-11T03:30:03.006Z,0
2016-10-11T03:31:14.161Z,0
2016-10-11T03:32:25.337Z,0
2016-10-11T03:33:36.485Z,0
2016-10-11T03:34:48.231Z,0
2016-10-11T03:35:59.982Z,0
2016-10-11T03:37:11.725Z,0
2016-10-11T03:38:22.875Z,0
2016-10-11T03:39:34.033Z,0
2016-10-11T03:40:45.200Z,0
2016-10-11T03:41:56.372Z,0
2016-10-11T03:43:08.077Z,0
2016-10-11T03:44:19.255Z,0
2016-10-11T03:45:30.437Z,0
2016-10-11T03:46:42.147Z,0
2016-10-11T03:47:53.342Z,0
2016-10-11T03:49:04.507Z,0
2016-10-11T03:50:16.259Z,0
2016-10-11T03:51:27.423Z,0
2016-10-11T03:52:39.706Z,0
2016-10-11T03:53:51.416Z,0
2016-10-11T03:55:02.604Z,0
2016-10-11T03:56:13.778Z,0
2016-10-11T03:57:24.977Z,0
2016-10-11T03:58:36.704Z,0
2016-10-11T03:59:47.878Z,0
2016-10-11T04:00:59.075Z,0
2016-10-11T04:02:10.264Z,0
2016-10-11T04:03:21.503Z,0
2016-10-11T04:04:32.660Z,0
2016-10-11T04:05:43.831Z,0
2016-10-11T04:06:54.983Z,0
2016-10-11T04:08:06.153Z,0
2016-10-11T04:09:17.341Z,0
2016-10-11T04:10:29.064Z,0
2016-10-11T04:11:40.263Z,0
2016-10-11T04:12:51.590Z,0
2016-10-11T04:14:03.317Z,0
2016-10-11T04:15:14.492Z,0
2016-10-11T04:16:25.675Z,0
2016-10-11T04:17:36.832Z,0
2016-10-11T04:18:48.021Z,0
2016-10-11T04:19:59.776Z,0
2016-10-11T04:21:10.926Z,0
2016-10-11T04:22:22.079Z,0
2016-10-11T04:23:33.251Z,0
2016-10-11T04:24:44.422Z,0
2016-10-11T04:25:55.595Z,0
2016-10-11T04:27:06.768Z,0
2016-10-11T04:28:18.487Z,0
2016-10-11T04:29:29.649Z,0
2016-10-11T04:30:41.452Z,0
2016-10-11T04:31:52.632Z,0
2016-10-11T04:33:03.828Z,0
2016-10-11T04:34:14.983Z,0
2016-10-11T04:35:26.175Z,0
2016-10-11T04:36:38.478Z,0
2016-10-11T04:37:49.655Z,0
2016-10-11T04:39:00.829Z,0
2016-10-11T04:40:12.054Z,0
2016-10-11T04:41:23.245Z,0
2016-10-11T04:42:34.437Z,0
2016-10-11T04:43:45.600Z,0
2016-10-11T04:44:56.744Z,0
2016-10-11T04:46:07.897Z,0
2016-10-11T04:47:20.751Z,0
2016-10-11T04:48:32.466Z,0
2016-10-11T04:49:43.648Z,0
2016-10-11T04:50:54.818Z,0
2016-10-11T04:52:05.969Z,0
2016-10-11T04:53:17.694Z,0
2016-10-11T04:54:29.441Z,0
2016-10-11T04:55:40.585Z,0
2016-10-11T04:56:51.739Z,0
2016-10-11T04:58:02.891Z,0
2016-10-11T04:59:14.045Z,0
2016-10-11T05:00:25.215Z,0
2016-10-11T05:01:36.405Z,0
2016-10-11T05:02:47.604Z,0
2016-10-11T05:03:58.773Z,0
2016-10-11T05:05:09.947Z,0
2016-10-11T05:06:21.123Z,0
2016-10-11T05:07:32.307Z,0
2016-10-11T05:08:43.457Z,0
2016-10-11T05:09:54.612Z,0
2016-10-11T05:11:05.749Z,0
2016-10-11T05:12:16.928Z,0
2016-10-11T05:13:28.087Z,0
2016-10-11T05:14:39.268Z,0
2016-10-11T05:15:50.459Z,0
2016-10-11T05:17:01.617Z,0
2016-10-11T05:18:12.763Z,0
2016-10-11T05:19:23.945Z,0
2016-10-11T05:20:35.087Z,0
2016-10-11T05:21:46.260Z,0
2016-10-11T05:22:57.411Z,0
2016-10-11T05:24:09.178Z,0
2016-10-11T05:25:20.362Z,0
2016-10-11T05:26:31.522Z,0
2016-10-11T05:27:42.673Z,0
2016-10-11T05:28:53.834Z,0
2016-10-11T05:30:05.588Z,0
2016-10-11T05:31:16.787Z,0
2016-10-11T05:32:27.984Z,0
2016-10-11T05:33:39.155Z,0
2016-10-11T05:34:50.338Z,0
2016-10-11T05:36:01.518Z,0
2016-10-11T05:37:12.709Z,0
2016-10-11T05:38:23.918Z,0
2016-10-11T05:39:35.068Z,0
2016-10-11T05:40:46.219Z,0
2016-10-11T05:41:57.373Z,0
2016-10-11T05:43:08.534Z,0
2016-10-11T05:44:20.269Z,0
2016-10-11T05:45:31.420Z,0
2016-10-11T05:46:43.134Z,0
2016-10-11T05:47:54.280Z,0
2016-10-11T05:49:05.453Z,0
2016-10-11T05:50:16.629Z,0
2016-10-11T05:51:27.782Z,0
2016-10-11T05:52:38.956Z,0
2016-10-11T05:53:50.121Z,0
2016-10-11T05:55:01.292Z,0
2016-10-11T05:56:12.449Z,0
2016-10-11T05:57:23.603Z,0
2016-10-11T05:58:34.781Z,0
2016-10-11T05:59:45.940Z,0
2016-10-11T06:00:57.121Z,0
2016-10-11T06:02:08.315Z,0
2016-10-11T06:03:19.470Z,0
2016-10-11T06:04:30.649Z,0
2016-10-11T06:05:41.824Z,0
2016-10-11T06:06:53.011Z,0
2016-10-11T06:08:04.173Z,0
2016-10-11T06:09:15.326Z,0
2016-10-11T06:10:26.509Z,0
2016-10-11T06:11:37.686Z,0
2016-10-11T06:12:48.864Z,0
2016-10-11T06:14:00.034Z,0
2016-10-11T06:15:11.199Z,0
2016-10-11T06:16:22.352Z,0
2016-10-11T06:17:33.499Z,0
2016-10-11T06:18:44.651Z,0
2016-10-11T06:19:55.832Z,0
2016-10-11T06:21:07.041Z,0
2016-10-11T06:22:18.219Z,0
2016-10-11T06:23:29.398Z,0
2016-10-11T06:24:40.584Z,0
2016-10-11T06:25:51.805Z,0
2016-10-11T06:27:02.986Z,0
2016-10-11T06:28:14.117Z,0
2016-10-11T06:29:25.278Z,0
2016-10-11T06:30:36.434Z,0
2016-10-11T06:31:47.636Z,0
2016-10-11T06:32:58.787Z,0
2016-10-11T06:34:10.011Z,0
2016-10-11T06:35:21.210Z,0
2016-10-11T06:36:32.401Z,0
2016-10-11T06:37:43.551Z,0
2016-10-11T06:38:54.730Z,0
2016-10-11T06:40:05.920Z,0
2016-10-11T06:41:17.072Z,0
2016-10-11T06:42:28.238Z,0
2016-10-11T06:43:39.413Z,0
2016-10-11T06:44:50.604Z,0
2016-10-11T06:46:01.740Z,0
2016-10-11T06:47:12.931Z,0
2016-10-11T06:48:24.089Z,0
2016-10-11T06:49:35.254Z,0
2016-10-11T06:50:46.397Z,0
2016-10-11T06:51:57.547Z,0
2016-10-11T06:53:08.717Z,0
2016-10-11T06:54:19.906Z,0
2016-10-11T06:55:31.073Z,0
2016-10-11T06:56:42.232Z,0
2016-10-11T06:57:53.374Z,0
2016-10-11T06:59:04.554Z,0
2016-10-11T07:00:15.740Z,0
2016-10-11T07:01:26.884Z,0
2016-10-11T07:02:38.044Z,0
2016-10-11T07:03:49.226Z,0
2016-10-11T07:05:00.410Z,0
2016-10-11T07:06:11.576Z,0
2016-10-11T07:07:22.765Z,0
2016-10-11T07:08:33.971Z,0
2016-10-11T07:09:45.159Z,0
2016-10-11T07:10:56.324Z,0
2016-10-11T07:12:07.467Z,0
2016-10-11T07:13:18.656Z,0
2016-10-11T07:14:29.826Z,0
2016-10-11T07:15:40.993Z,0
2016-10-11T07:16:52.183Z,0
2016-10-11T07:18:03.341Z,0
2016-10-11T07:19:14.510Z,0
2016-10-11T07:20:25.682Z,0
2016-10-11T07:21:36.854Z,0
2016-10-11T07:22:47.995Z,0
2016-10-11T07:23:59.176Z,0
2016-10-11T07:25:10.349Z,0
2016-10-11T07:26:21.536Z,0
2016-10-11T07:27:32.712Z,0
2016-10-11T07:28:43.904Z,0
2016-10-11T07:29:55.093Z,0
2016-10-11T07:31:06.267Z,0
2016-10-11T07:32:17.463Z,0
2016-10-11T07:33:28.616Z,0
2016-10-11T07:34:39.802Z,0
2016-10-11T07:35:50.981Z,0
2016-10-11T07:37:02.133Z,0
2016-10-11T07:38:13.357Z,0
2016-10-11T07:39:24.510Z,0
2016-10-11T07:40:35.654Z,0
2016-10-11T07:41:46.804Z,0
2016-10-11T07:42:57.949Z,0
2016-10-11T07:44:09.096Z,0
2016-10-11T07:45:20.255Z,0
2016-10-11T07:46:31.427Z,0
2016-10-11T07:47:42.596Z,0
2016-10-11T07:48:53.763Z,0
2016-10-11T07:50:04.907Z,0
2016-10-11T07:51:16.061Z,0
2016-10-11T07:52:27.224Z,0
2016-10-11T07:53:38.395Z,0
2016-10-11T07:54:49.557Z,0
2016-10-11T07:56:00.712Z,0
2016-10-11T07:57:11.880Z,0
2016-10-11T07:58:23.054Z,0
2016-10-11T07:59:34.233Z,0
2016-10-11T08:00:45.395Z,0
2016-10-11T08:01:56.567Z,0
2016-10-11T08:03:07.731Z,0
2016-10-11T08:04:18.877Z,0
2016-10-11T08:05:30.043Z,0
2016-10-11T08:06:41.220Z,0
2016-10-11T08:07:52.371Z,0
2016-10-11T08:09:03.560Z,0
2016-10-11T08:10:14.700Z,0
2016-10-11T08:11:25.866Z,0
2016-10-11T08:12:37.014Z,0
2016-10-11T08:13:48.175Z,4
2016-10-11T08:14:59.342Z,0
2016-10-11T08:16:10.514Z,4
2016-10-11T08:17:21.668Z,4
2016-10-11T08:18:32.834Z,8
2016-10-11T08:19:44.027Z,4
2016-10-11T08:20:55.180Z,8
2016-10-11T08:22:06.365Z,16
2016-10-11T08:23:17.519Z,16
2016-10-11T08:24:28.709Z,24
2016-10-11T08:25:39.932Z,28
2016-10-11T08:26:51.115Z,36
2016-10-11T08:28:02.798Z,48
2016-10-11T08:29:13.971Z,60
2016-10-11T08:30:25.155Z,72
2016-10-11T08:31:36.321Z,96
2016-10-11T08:32:47.464Z,116
2016-10-11T08:33:58.639Z,140
2016-10-11T08:35:10.411Z,172
2016-10-11T08:36:21.602Z,204
2016-10-11T08:37:32.762Z,236
2016-10-11T08:38:43.935Z,276
2016-10-11T08:39:55.120Z,304
2016-10-11T08:41:06.430Z,332
2016-10-11T08:42:17.727Z,364
2016-10-11T08:43:28.916Z,412
2016-10-11T08:44:40.110Z,480
2016-10-11T08:45:51.318Z,536
2016-10-11T08:47:02.482Z,564
2016-10-11T08:48:13.667Z,576
2016-10-11T08:49:24.833Z,644
2016-10-11T08:50:36.008Z,728
2016-10-11T08:51:47.172Z,860
2016-10-11T08:52:58.469Z,916
2016-10-11T08:54:09.622Z,944
2016-10-11T08:55:20.780Z,1000
2016-10-11T08:56:31.952Z,1144
2016-10-11T08:57:43.113Z,1240
2016-10-11T08:58:54.833Z,1244
2016-10-11T09:00:06.030Z,1228
2016-10-11T09:01:17.216Z,1292
2016-10-11T09:02:28.382Z,1432
2016-10-11T09:03:39.582Z,1628
2016-10-11T09:04:50.800Z,1796
2016-10-11T09:06:01.941Z,1908
2016-10-11T09:07:13.105Z,1960
2016-10-11T09:08:24.285Z,2036
2016-10-11T09:09:35.477Z,2024
2016-10-11T09:10:46.668Z,2104
2016-10-11T09:11:57.838Z,2208
2016-10-11T09:13:09.015Z,2260
2016-10-11T09:14:20.170Z,2244
2016-10-11T09:15:31.340Z,2268
2016-10-11T09:16:42.516Z,2476
2016-10-11T09:17:53.679Z,2604
2016-10-11T09:19:04.840Z,2668
2016-10-11T09:20:16.042Z,2744
2016-10-11T09:21:27.209Z,2756
2016-10-11T09:22:38.360Z,2872
2016-10-11T09:23:49.527Z,2804
2016-10-11T09:25:00.709Z,2700
2016-10-11T09:26:11.866Z,3028
2016-10-11T09:27:23.051Z,3200
2016-10-11T09:28:34.227Z,3452
2016-10-11T09:29:45.422Z,3020
2016-10-11T09:30:57.145Z,2664
2016-10-11T09:32:08.336Z,2664
2016-10-11T09:33:19.517Z,3316
2016-10-11T09:34:30.668Z,3764
2016-10-11T09:35:41.852Z,4260
2016-10-11T09:36:53.035Z,4252
2016-10-11T09:38:04.220Z,4200
2016-10-11T09:39:15.395Z,4292
2016-10-11T09:40:26.547Z,4252
2016-10-11T09:41:37.719Z,4368
2016-10-11T09:42:48.886Z,4392
2016-10-11T09:44:00.063Z,4636
2016-10-11T09:45:11.227Z,5044
2016-10-11T09:46:22.421Z,5972
2016-10-11T09:47:33.582Z,6900
2016-10-11T09:48:44.742Z,6736
2016-10-11T09:49:55.905Z,6384
2016-10-11T09:51:07.092Z,6456
2016-10-11T09:52:18.232Z,6948
2016-10-11T09:53:29.396Z,6976
2016-10-11T09:54:40.596Z,6332
2016-10-11T09:55:51.769Z,6208
2016-10-11T09:57:02.935Z,7352
2016-10-11T09:58:14.123Z,7788
2016-10-11T09:59:25.287Z,7640
2016-10-11T10:00:36.435Z,7944
2016-10-11T10:01:47.634Z,8424
2016-10-11T10:02:58.866Z,9108
2016-10-11T10:04:10.039Z,9180
2016-10-11T10:05:21.201Z,9152
2016-10-11T10:06:32.354Z,9380
2016-10-11T10:07:43.547Z,9660
2016-10-11T10:08:54.759Z,9840
2016-10-11T10:10:05.920Z,9936
2016-10-11T10:11:17.075Z,10428
2016-10-11T10:12:28.252Z,10596
2016-10-11T10:13:39.434Z,10256
2016-10-11T10:14:50.616Z,9956
2016-10-11T10:16:01.799Z,10076
2016-10-11T10:17:12.998Z,9640
2016-10-11T10:18:24.157Z,11596
2016-10-11T10:19:35.340Z,12540
2016-10-11T10:20:46.563Z,12296
2016-10-11T10:21:57.729Z,12368
2016-10-11T10:23:08.895Z,13104
2016-10-11T10:24:20.053Z,12336
2016-10-11T10:25:31.213Z,11436
2016-10-11T10:26:42.575Z,11836
2016-10-11T10:27:53.741Z,12068
2016-10-11T10:29:04.905Z,11028
2016-10-11T10:30:16.097Z,11208
2016-10-11T10:31:27.289Z,12644
2016-10-11T10:32:38.458Z,13364
2016-10-11T10:33:49.624Z,14072
2016-10-11T10:35:00.821Z,13972
2016-10-11T10:36:12.023Z,13088
2016-10-11T10:37:23.233Z,12756
2016-10-11T10:38:34.385Z,12972
2016-10-11T10:39:45.568Z,12600
2016-10-11T10:40:56.746Z,13020
2016-10-11T10:42:07.950Z,14444
2016-10-11T10:43:19.116Z,16340
2016-10-11T10:44:30.290Z,18464
2016-10-11T10:45:41.445Z,16836
2016-10-11T10:46:52.648Z,15308
2016-10-11T10:48:04.157Z,15460
2016-10-11T10:49:15.473Z,16820
2016-10-11T10:50:26.641Z,17032
2016-10-11T10:51:37.805Z,17472
2016-10-11T10:52:48.991Z,17012
2016-10-11T10:54:00.187Z,16980
2016-10-11T10:55:11.375Z,17824
2016-10-11T10:56:22.576Z,19904
2016-10-11T10:57:34.321Z,21408
2016-10-11T10:58:45.496Z,20256
2016-10-11T10:59:56.661Z,19168
2016-10-11T11:01:07.842Z,20896
2016-10-11T11:02:19.592Z,22080
2016-10-11T11:03:30.760Z,20864
2016-10-11T11:04:41.965Z,19104
2016-10-11T11:05:53.176Z,20672
2016-10-11T11:07:04.339Z,22016
2016-10-11T11:08:15.477Z,24512
2016-10-11T11:09:26.636Z,25664
2016-10-11T11:10:37.816Z,24640
2016-10-11T11:11:49.008Z,24960
2016-10-11T11:13:00.210Z,25120
2016-10-11T11:14:11.430Z,25056
2016-10-11T11:15:23.142Z,26208
2016-10-11T11:16:34.328Z,25760
2016-10-11T11:17:45.486Z,23040
2016-10-11T11:18:56.658Z,22528
2016-10-11T11:20:07.852Z,22976
2016-10-11T11:21:19.046Z,23936
2016-10-11T11:22:30.206Z,25408
2016-10-11T11:23:41.381Z,26496
2016-10-11T11:24:52.548Z,29664
2016-10-11T11:26:03.720Z,32832
2016-10-11T11:27:14.917Z,28576
2016-10-11T11:28:26.081Z,24288
2016-10-11T11:29:37.244Z,24512
2016-10-11T11:30:48.410Z,28512
2016-10-11T11:31:59.576Z,33696
2016-10-11T11:33:10.746Z,34912
2016-10-11T11:34:21.943Z,32480
2016-10-11T11:35:33.111Z,28832
2016-10-11T11:36:44.301Z,27584
2016-10-11T11:37:55.461Z,30144
2016-10-11T11:39:06.636Z,32896
2016-10-11T11:40:17.837Z,36320
2016-10-11T11:41:29.442Z,42912
2016-10-11T11:42:41.187Z,43296
2016-10-11T11:43:52.377Z,43904
2016-10-11T11:45:03.555Z,44928
2016-10-11T11:46:14.732Z,41696
2016-10-11T11:47:25.902Z,37504
2016-10-11T11:48:37.089Z,36224
2016-10-11T11:49:48.257Z,36256
2016-10-11T11:50:59.995Z,37984
2016-10-11T11:52:11.163Z,34400
2016-10-11T11:53:22.370Z,32416
2016-10-11T11:54:33.526Z,32128
2016-10-11T11:55:44.691Z,33280
2016-10-11T11:56:55.874Z,38048
2016-10-11T11:58:07.071Z,44960
2016-10-11T11:59:18.275Z,40160
2016-10-11T12:00:29.479Z,35328
2016-10-11T12:01:40.674Z,33792
2016-10-11T12:02:51.838Z,36032
2016-10-11T12:04:02.982Z,39328
2016-10-11T12:05:14.161Z,37408
2016-10-11T12:06:25.334Z,35872
2016-10-11T12:07:36.489Z,36416
2016-10-11T12:08:47.692Z,34144
2016-10-11T12:09:58.889Z,32096
2016-10-11T12:11:10.046Z,32864
2016-10-11T12:12:21.243Z,33760
2016-10-11T12:13:32.396Z,32192
2016-10-11T12:14:43.609Z,33984
2016-10-11T12:15:54.786Z,35008
2016-10-11T12:17:05.924Z,36640
2016-10-11T12:18:17.109Z,38432
2016-10-11T12:19:28.350Z,36160
2016-10-11T12:20:39.528Z,34816
2016-10-11T12:21:50.709Z,34048
2016-10-11T12:23:01.874Z,33280
2016-10-11T12:24:13.010Z,32512
2016-10-11T12:25:24.200Z,32224
2016-10-11T12:26:35.371Z,32288
2016-10-11T12:27:46.531Z,33664
2016-10-11T12:28:57.755Z,35968
2016-10-11T12:30:08.934Z,36448
2016-10-11T12:31:20.124Z,36576
2016-10-11T12:32:31.309Z,37856
2016-10-11T12:33:42.503Z,39904
2016-10-11T12:34:53.671Z,42976
2016-10-11T12:36:05.447Z,48512
2016-10-11T12:37:16.614Z,55392
2016-10-11T12:38:27.775Z,56736
2016-10-11T12:39:38.932Z,59232
2016-10-11T12:40:50.131Z,52704
2016-10-11T12:42:01.331Z,42688
2016-10-11T12:43:12.506Z,37184
2016-10-11T12:44:23.671Z,33056
2016-10-11T12:45:34.930Z,31104
2016-10-11T12:46:46.084Z,30848
2016-10-11T12:47:57.262Z,30496
2016-10-11T12:49:08.438Z,30144
2016-10-11T12:50:19.740Z,30368
2016-10-11T12:51:30.942Z,32256
2016-10-11T12:52:42.148Z,34560
2016-10-11T12:53:53.349Z,35904
2016-10-11T12:55:04.522Z,36544
2016-10-11T12:56:15.673Z,37184
2016-10-11T12:57:26.855Z,38368
2016-10-11T12:58:38.046Z,39264
2016-10-11T12:59:49.217Z,38336
2016-10-11T13:01:00.425Z,35776
2016-10-11T13:02:11.635Z,33888
2016-10-11T13:03:22.792Z,33056
2016-10-11T13:04:33.964Z,33600
2016-10-11T13:05:45.148Z,34816
2016-10-11T13:06:57.188Z,36384
2016-10-11T13:08:08.508Z,38400
2016-10-11T13:09:19.679Z,40192
2016-10-11T13:10:30.902Z,40192
2016-10-11T13:11:42.098Z,39456
2016-10-11T13:12:53.272Z,38624
2016-10-11T13:14:05.038Z,37952
2016-10-11T13:15:16.259Z,38528
2016-10-11T13:16:27.500Z,40160
2016-10-11T13:17:38.696Z,41920
2016-10-11T13:18:49.873Z,42720
2016-10-11T13:20:01.070Z,42976
2016-10-11T13:21:12.227Z,43264
2016-10-11T13:22:23.388Z,44928
2016-10-11T13:23:34.566Z,48544
2016-10-11T13:24:45.753Z,49728
2016-10-11T13:25:56.929Z,49088
2016-10-11T13:27:08.095Z,47040
2016-10-11T13:28:19.267Z,45184
2016-10-11T13:29:30.471Z,44512
2016-10-11T13:30:41.650Z,44224
2016-10-11T13:31:53.372Z,43968
2016-10-11T13:33:04.565Z,42944
2016-10-11T13:34:15.790Z,42048
2016-10-11T13:35:26.991Z,41600
2016-10-11T13:36:38.172Z,41152
2016-10-11T13:37:49.355Z,41664
2016-10-11T13:39:00.547Z,43104
2016-10-11T13:40:11.744Z,44928
2016-10-11T13:41:22.920Z,46784
2016-10-11T13:42:34.123Z,47296
2016-10-11T13:43:45.327Z,46816
2016-10-11T13:44:56.515Z,47616
2016-10-11T13:46:07.693Z,49408
2016-10-11T13:47:18.903Z,49184
2016-10-11T13:48:30.095Z,48576
2016-10-11T13:49:41.277Z,49216
2016-10-11T13:50:53.002Z,49696
2016-10-11T13:52:04.180Z,51520
2016-10-11T13:53:15.342Z,52704
2016-10-11T13:54:26.527Z,52960
2016-10-11T13:55:37.704Z,53312
2016-10-11T13:56:49.095Z,55168
2016-10-11T13:58:00.318Z,59136
2016-10-11T13:59:11.495Z,59712
2016-10-11T14:00:22.697Z,56768
2016-10-11T14:01:33.910Z,56000
2016-10-11T14:02:45.114Z,55648
2016-10-11T14:03:56.747Z,53824
2016-10-11T14:05:07.915Z,53152
2016-10-11T14:06:19.076Z,53280
2016-10-11T14:07:30.796Z,54528
2016-10-11T14:08:41.984Z,57248
2016-10-11T14:09:53.159Z,59328
2016-10-11T14:11:04.337Z,55904
2016-10-11T14:12:16.068Z,52800
2016-10-11T14:13:27.399Z,50688
2016-10-11T14:14:38.579Z,50272
2016-10-11T14:15:49.763Z,49376
2016-10-11T14:17:01.103Z,48928
2016-10-11T14:18:12.290Z,50240
2016-10-11T14:19:23.706Z,52000
2016-10-11T14:20:35.032Z,52864
2016-10-11T14:21:46.220Z,52480
2016-10-11T14:22:57.407Z,54944
2016-10-11T14:24:08.614Z,60320
2016-10-11T14:25:19.823Z,60672
2016-10-11T14:26:31.045Z,61184
2016-10-11T14:27:42.226Z,60192
2016-10-11T14:28:53.579Z,65280
2016-10-11T14:30:04.855Z,67488
2016-10-11T14:31:16.087Z,81760
2016-10-11T14:32:27.268Z,139104
2016-10-11T14:33:38.423Z,144416
2016-10-11T14:34:49.611Z,145312
2016-10-11T14:36:00.814Z,145664
2016-10-11T14:37:11.991Z,107712
2016-10-11T14:38:23.199Z,70336
2016-10-11T14:39:34.361Z,61248
2016-10-11T14:40:45.521Z,54624
2016-10-11T14:41:56.724Z,52416
2016-10-11T14:43:08.005Z,51936
2016-10-11T14:44:19.226Z,52512
2016-10-11T14:45:30.425Z,56096
2016-10-11T14:46:41.600Z,59872
2016-10-11T14:47:52.859Z,58464
2016-10-11T14:49:04.057Z,57920
2016-10-11T14:50:15.227Z,54720
2016-10-11T14:51:26.452Z,55904
2016-10-11T14:52:37.631Z,59072
2016-10-11T14:53:48.793Z,59072
2016-10-11T14:54:59.965Z,56896
2016-10-11T14:56:11.163Z,73344
2016-10-11T14:57:22.618Z,135744
2016-10-11T14:58:33.827Z,130464
2016-10-11T14:59:45.008Z,130432
2016-10-11T15:00:56.167Z,135648
2016-10-11T15:02:07.370Z,121632
2016-10-11T15:03:18.543Z,68832
2016-10-11T15:04:29.722Z,96608
2016-10-11T15:05:40.901Z,92352
2016-10-11T15:06:52.071Z,92288
2016-10-11T15:08:03.243Z,60832
2016-10-11T15:09:14.429Z,55392
2016-10-11T15:10:25.630Z,53984
2016-10-11T15:11:36.819Z,52736
2016-10-11T15:12:48.015Z,52736
2016-10-11T15:13:59.208Z,60928
2016-10-11T15:15:10.433Z,118176
2016-10-11T15:16:21.605Z,127648
2016-10-11T15:17:32.821Z,108896
2016-10-11T15:18:44.001Z,77760
2016-10-11T15:19:55.204Z,131232
2016-10-11T15:21:06.362Z,138752
2016-10-11T15:22:17.546Z,76352
2016-10-11T15:23:28.757Z,75104
2016-10-11T15:24:39.930Z,68704
2016-10-11T15:25:51.155Z,70592
2016-10-11T15:27:02.338Z,68672
2016-10-11T15:28:13.509Z,71264
2016-10-11T15:29:24.703Z,64416
2016-10-11T15:30:35.873Z,70336
2016-10-11T15:31:47.055Z,51680
2016-10-11T15:32:58.237Z,52960
2016-10-11T15:34:09.409Z,65568
2016-10-11T15:35:20.575Z,92896
2016-10-11T15:36:31.761Z,85056
2016-10-11T15:37:42.938Z,93536
2016-10-11T15:38:54.127Z,55776
2016-10-11T15:40:05.297Z,95136
2016-10-11T15:41:16.468Z,114240
2016-10-11T15:42:27.634Z,114208
2016-10-11T15:43:38.862Z,91840
2016-10-11T15:44:49.768Z,111520
2016-10-11T15:46:00.553Z,111104
2016-10-11T15:47:11.251Z,116160
2016-10-11T15:48:21.960Z,116160
2016-10-11T15:49:32.682Z,114304
2016-10-11T15:50:43.968Z,108192
2016-10-11T15:51:54.698Z,82752
2016-10-11T15:53:05.419Z,96832
2016-10-11T15:54:16.137Z,94528
2016-10-11T15:55:26.981Z,86400
2016-10-11T15:56:38.326Z,83872
2016-10-11T15:57:49.067Z,105792
2016-10-11T15:58:59.792Z,109696
2016-10-11T16:00:11.044Z,111104
2016-10-11T16:01:21.794Z,109312
2016-10-11T16:02:32.527Z,112032
2016-10-11T16:03:43.768Z,111360
2016-10-11T16:04:54.479Z,105376
2016-10-11T16:06:05.237Z,104768
2016-10-11T16:07:15.973Z,109024
2016-10-11T16:08:26.682Z,109408
2016-10-11T16:09:37.412Z,107104
2016-10-11T16:10:48.131Z,105728
2016-10-11T16:11:58.847Z,100736
2016-10-11T16:13:09.742Z,99104
2016-10-11T16:14:20.689Z,94048
2016-10-11T16:15:31.420Z,96160
2016-10-11T16:16:42.158Z,108128
2016-10-11T16:17:52.873Z,106464
2016-10-11T16:19:03.594Z,109696
2016-10-11T16:20:14.318Z,111840
2016-10-11T16:21:25.041Z,109600
2016-10-11T16:22:35.771Z,71968
2016-10-11T16:23:46.493Z,98816
2016-10-11T16:24:57.209Z,63488
2016-10-11T16:26:07.925Z,43104